Terminal Aerodrome Forecast
Issued by NWS

Home | Current Version | Previous Version | Text Only | Print | Product List | Glossary On
Versions: 1 2 3 4 5 6 7 8 9 10 11 12 13 14 15 16 17 18 19 20
000
FTUS46 KMFR 190520
TAFOTH
TAF
KOTH 190520Z 1906/2006 01005KT 6SM BR SKC
     FM191000 02003KT 5SM BR SCT003
     FM191700 36008KT P6SM SKC
     FM191900 36021G30KT P6SM SKC=

USA.gov is the U.S. government's official web portal to all federal, state and local government web resources and services.